createdAt,value
2022-09-05T00:02:03.085Z,17.66
2022-09-05T00:05:07.141Z,17.62
2022-09-05T00:07:58.726Z,17.61
2022-09-05T00:11:39.370Z,17.57
2022-09-05T00:14:14.413Z,17.49
2022-09-05T00:16:56.214Z,17.50
2022-09-05T00:24:27.564Z,17.49
2022-09-05T00:24:35.702Z,17.46
2022-09-05T00:25:53.236Z,17.46
2022-09-05T00:28:31.091Z,17.45
2022-09-05T00:31:53.353Z,17.42
2022-09-05T00:34:48.447Z,17.34
2022-09-05T00:37:37.135Z,17.34
2022-09-05T00:40:39.332Z,17.33
2022-09-05T00:43:10.010Z,17.33
2022-09-05T00:45:47.616Z,17.30
2022-09-05T00:48:25.688Z,17.27
2022-09-05T00:51:01.261Z,17.26
2022-09-05T00:53:33.935Z,17.20
2022-09-05T00:56:18.887Z,17.19
2022-09-05T00:59:03.982Z,17.17
2022-09-05T01:01:59.220Z,17.11
2022-09-05T01:05:03.701Z,17.07
2022-09-05T01:07:44.188Z,17.02
2022-09-05T01:10:31.714Z,16.99
2022-09-05T01:13:09.163Z,16.98
2022-09-05T01:15:59.854Z,16.92
2022-09-05T01:19:19.317Z,16.90
2022-09-05T01:21:51.542Z,16.92
2022-09-05T01:24:27.759Z,16.90
2022-09-05T01:27:00.446Z,16.86
2022-09-05T01:29:50.334Z,16.85
2022-09-05T01:32:45.777Z,16.81
2022-09-05T01:35:28.018Z,16.78
2022-09-05T01:38:06.358Z,16.72
2022-09-05T01:41:18.923Z,16.76
2022-09-05T01:44:10.880Z,16.75
2022-09-05T01:46:59.022Z,16.77
2022-09-05T01:49:46.498Z,16.77
2022-09-05T01:52:59.702Z,16.76
2022-09-05T01:56:06.195Z,16.76
2022-09-05T01:59:15.523Z,16.77
2022-09-05T02:02:14.459Z,16.79
2022-09-05T02:05:08.653Z,16.77
2022-09-05T02:07:38.227Z,16.78
2022-09-05T02:10:10.666Z,16.78
2022-09-05T02:13:20.779Z,16.74
2022-09-05T02:16:01.456Z,16.75
2022-09-05T02:18:54.293Z,16.71
2022-09-05T02:21:33.459Z,16.69
2022-09-05T02:24:13.480Z,16.68
2022-09-05T02:26:52.317Z,16.69
2022-09-05T02:29:30.665Z,16.66
2022-09-05T02:32:12.420Z,16.64
2022-09-05T02:35:00.353Z,16.63
2022-09-05T02:38:33.108Z,16.60
2022-09-05T02:45:11.602Z,16.61
2022-09-05T02:45:20.340Z,16.61
2022-09-05T02:46:33.623Z,16.60
2022-09-05T02:49:11.071Z,16.58
2022-09-05T02:57:26.301Z,16.56
2022-09-05T02:57:40.243Z,16.53
2022-09-05T02:58:07.574Z,16.52
2022-09-05T03:00:44.441Z,16.49
2022-09-05T03:03:27.168Z,16.45
2022-09-05T03:05:58.992Z,16.42
2022-09-05T03:08:31.614Z,16.39
2022-09-05T03:11:03.955Z,16.37
2022-09-05T03:13:58.035Z,16.33
2022-09-05T03:16:47.094Z,16.32
2022-09-05T03:19:46.151Z,16.33
2022-09-05T03:22:44.365Z,16.31
2022-09-05T03:25:36.772Z,16.28
2022-09-05T03:28:09.363Z,16.21
2022-09-05T03:30:48.450Z,16.19
2022-09-05T03:33:37.011Z,16.20
2022-09-05T03:36:28.313Z,16.19
2022-09-05T03:39:22.250Z,16.16
2022-09-05T03:42:14.808Z,16.13
2022-09-05T03:44:44.406Z,16.11
2022-09-05T03:48:02.000Z,16.03
2022-09-05T03:56:58.248Z,16.00
2022-09-05T03:57:27.457Z,15.96
2022-09-05T03:57:33.797Z,15.93
2022-09-05T04:00:10.435Z,15.93
2022-09-05T04:07:32.411Z,15.97
2022-09-05T04:08:26.020Z,15.96
2022-09-05T04:08:55.415Z,16.01
2022-09-05T04:11:37.717Z,16.00
2022-09-05T04:14:13.150Z,15.96
2022-09-05T04:17:03.471Z,15.98
2022-09-05T04:19:49.061Z,15.96
2022-09-05T04:22:25.284Z,15.94
2022-09-05T04:25:13.314Z,15.95
2022-09-05T04:28:01.459Z,15.97
2022-09-05T04:30:49.094Z,15.95
2022-09-05T04:33:35.988Z,15.96
2022-09-05T04:36:18.604Z,15.93
2022-09-05T04:38:45.839Z,15.90
2022-09-05T04:41:14.613Z,15.89
2022-09-05T04:43:48.148Z,15.85
2022-09-05T04:46:32.076Z,15.81
2022-09-05T04:49:20.488Z,15.80
2022-09-05T04:52:00.405Z,15.79
2022-09-05T04:54:48.953Z,15.81
2022-09-05T04:57:54.099Z,16.00
2022-09-05T05:04:43.951Z,16.78
2022-09-05T05:06:10.846Z,17.41
2022-09-05T05:06:38.204Z,17.84
2022-09-05T05:09:22.346Z,18.12
2022-09-05T05:17:18.008Z,18.32
2022-09-05T05:18:11.491Z,18.42
2022-09-05T05:18:36.490Z,18.56
2022-09-05T05:20:52.895Z,18.73
2022-09-05T05:23:35.419Z,18.85
2022-09-05T05:26:08.852Z,18.88
2022-09-05T05:28:52.007Z,18.96
2022-09-05T05:31:28.892Z,19.11
2022-09-05T05:34:02.217Z,19.16
2022-09-05T05:36:36.843Z,19.26
2022-09-05T05:39:25.256Z,19.24
2022-09-05T05:41:54.575Z,19.26
2022-09-05T05:44:34.891Z,19.32
2022-09-05T05:47:31.567Z,19.31
2022-09-05T05:50:36.465Z,19.38
2022-09-05T05:53:43.043Z,19.53
2022-09-05T05:56:52.521Z,19.61
2022-09-05T05:59:28.118Z,19.69
2022-09-05T06:02:13.066Z,19.72
2022-09-05T06:04:45.423Z,19.69
2022-09-05T06:07:25.457Z,19.75
2022-09-05T06:14:51.679Z,19.86
2022-09-05T06:14:59.172Z,20.05
2022-09-05T06:16:10.927Z,20.22
2022-09-05T06:19:05.578Z,20.44
2022-09-05T06:22:11.120Z,20.60
2022-09-05T06:25:07.690Z,20.64
2022-09-05T06:28:05.625Z,20.74
2022-09-05T06:30:45.388Z,20.82
2022-09-05T06:33:25.962Z,20.93
2022-09-05T06:36:24.510Z,21.07
2022-09-05T06:39:17.413Z,21.25
2022-09-05T06:42:39.127Z,21.35
2022-09-05T06:45:28.423Z,21.40
2022-09-05T06:48:06.005Z,21.46
2022-09-05T06:51:07.859Z,21.51
2022-09-05T06:53:53.458Z,21.64
2022-09-05T06:56:26.730Z,21.62
2022-09-05T06:59:18.072Z,21.67
2022-09-05T07:02:12.574Z,21.55
2022-09-05T07:05:24.508Z,21.40
2022-09-05T07:07:32.196Z,21.39
2022-09-05T07:10:22.197Z,21.64
2022-09-05T07:13:08.360Z,21.78
2022-09-05T07:15:58.428Z,21.78
2022-09-05T07:18:43.727Z,21.76
2022-09-05T07:21:35.765Z,21.71
2022-09-05T07:24:09.627Z,21.82
2022-09-05T07:26:54.757Z,21.91
2022-09-05T07:29:32.561Z,22.05
2022-09-05T07:32:01.547Z,22.15
2022-09-05T07:34:30.584Z,22.26
2022-09-05T07:37:14.932Z,22.32
2022-09-05T07:39:54.724Z,22.50
2022-09-05T07:42:28.819Z,22.61
2022-09-05T07:45:00.461Z,22.55
2022-09-05T07:47:33.856Z,22.50
2022-09-05T07:51:13.619Z,22.49
2022-09-05T07:56:56.723Z,22.65
2022-09-05T07:57:01.708Z,22.76
2022-09-05T07:58:41.469Z,22.74
2022-09-05T08:01:13.796Z,22.85
2022-09-05T08:03:42.846Z,22.90
2022-09-05T08:07:45.554Z,22.93
2022-09-05T08:10:06.771Z,22.96
2022-09-05T08:12:09.813Z,23.13
2022-09-05T08:14:44.918Z,23.28
2022-09-05T08:17:26.441Z,23.38
2022-09-05T08:20:14.387Z,23.40
2022-09-05T08:22:59.007Z,23.48
2022-09-05T08:25:41.535Z,23.68
2022-09-05T08:28:37.634Z,23.90
2022-09-05T08:31:24.407Z,23.94
2022-09-05T08:33:57.298Z,23.96
2022-09-05T08:36:38.859Z,24.02
2022-09-05T08:39:07.983Z,24.07
2022-09-05T08:42:07.903Z,24.20
2022-09-05T08:46:41.511Z,24.34
2022-09-05T08:48:13.326Z,24.49
2022-09-05T08:51:02.666Z,24.47
2022-09-05T08:53:46.926Z,24.65
2022-09-05T08:56:27.031Z,24.76
2022-09-05T08:59:27.791Z,24.74
2022-09-05T09:02:45.483Z,24.89
2022-09-05T09:05:14.384Z,25.05
2022-09-05T09:07:51.082Z,25.04
2022-09-05T09:10:57.378Z,25.15
2022-09-05T09:13:52.239Z,25.39
2022-09-05T09:16:40.711Z,25.59
2022-09-05T09:19:28.948Z,25.81
2022-09-05T09:22:40.013Z,25.92
2022-09-05T09:25:25.881Z,25.98
2022-09-05T09:28:43.588Z,26.08
2022-09-05T09:30:59.494Z,26.18
2022-09-05T09:33:51.576Z,26.30
2022-09-05T09:36:20.828Z,26.40
2022-09-05T09:39:38.693Z,26.56
2022-09-05T09:42:33.416Z,26.46
2022-09-05T09:45:34.638Z,26.34
2022-09-05T09:48:12.847Z,26.37
2022-09-05T09:50:58.530Z,26.39
2022-09-05T09:53:58.028Z,26.42
2022-09-05T09:56:58.250Z,26.53
2022-09-05T09:59:59.947Z,26.54
2022-09-05T10:05:41.485Z,26.67
2022-09-05T10:10:45.322Z,26.95
2022-09-05T10:10:48.643Z,26.80
2022-09-05T10:12:12.823Z,27.08
2022-09-05T10:15:30.516Z,27.11
2022-09-05T10:17:55.267Z,27.26
2022-09-05T10:21:17.048Z,27.46
2022-09-05T10:24:08.667Z,27.75
2022-09-05T10:26:41.067Z,27.90
2022-09-05T10:29:37.701Z,28.00
2022-09-05T10:34:16.047Z,27.96
2022-09-05T10:35:22.517Z,27.91
2022-09-05T10:37:56.265Z,27.84
2022-09-05T10:40:26.432Z,27.94
2022-09-05T10:43:01.408Z,28.09
2022-09-05T10:45:51.795Z,28.27
2022-09-05T10:48:43.458Z,28.40
2022-09-05T10:51:27.809Z,28.60
2022-09-05T10:54:04.084Z,28.69
2022-09-05T10:56:45.601Z,28.92
2022-09-05T11:02:19.198Z,29.26
2022-09-05T11:02:37.474Z,29.56
2022-09-05T11:05:25.551Z,29.79
2022-09-05T11:08:29.427Z,30.03
2022-09-05T11:11:33.945Z,30.26
2022-09-05T11:14:07.360Z,30.50
2022-09-05T11:17:01.877Z,30.57
2022-09-05T11:19:50.333Z,30.62
2022-09-05T11:22:23.824Z,30.78
2022-09-05T11:25:03.631Z,30.93
2022-09-05T11:27:33.574Z,30.93
2022-09-05T11:30:06.705Z,30.93
2022-09-05T11:38:35.499Z,30.99
2022-09-05T11:39:57.099Z,31.15
2022-09-05T11:40:10.956Z,31.01
2022-09-05T11:42:44.483Z,31.34
2022-09-05T11:45:15.503Z,31.23
2022-09-05T11:48:12.909Z,31.31
2022-09-05T11:51:01.025Z,31.32
2022-09-05T11:53:57.268Z,31.34
2022-09-05T11:56:46.018Z,31.45
2022-09-05T11:59:33.387Z,31.63
2022-09-05T12:02:11.022Z,31.77
2022-09-05T12:05:50.592Z,32.01
2022-09-05T12:08:22.963Z,32.07
2022-09-05T12:11:17.447Z,32.07
2022-09-05T12:13:48.818Z,32.05
2022-09-05T12:16:29.973Z,32.13
2022-09-05T12:19:22.867Z,32.28
2022-09-05T12:22:25.297Z,32.42
2022-09-05T12:26:08.847Z,32.50
2022-09-05T12:29:28.005Z,32.60
2022-09-05T12:33:03.346Z,32.74
2022-09-05T12:40:21.416Z,32.54
2022-09-05T12:41:38.675Z,32.52
2022-09-05T12:41:42.271Z,32.77
2022-09-05T12:43:52.658Z,32.63
2022-09-05T12:46:05.728Z,32.75
2022-09-05T12:48:52.683Z,32.80
2022-09-05T12:51:47.059Z,32.86
2022-09-05T12:54:24.710Z,32.90
2022-09-05T13:00:20.127Z,32.91
2022-09-05T13:03:04.083Z,32.92
2022-09-05T13:03:10.947Z,32.93
2022-09-05T13:05:47.414Z,32.89
2022-09-05T13:08:21.118Z,32.87
2022-09-05T13:14:46.661Z,33.01
2022-09-05T13:14:54.225Z,33.03
2022-09-05T13:16:53.971Z,32.98
2022-09-05T13:19:29.759Z,32.99
2022-09-05T13:21:59.970Z,33.20
2022-09-05T13:24:32.293Z,33.40
2022-09-05T13:27:13.739Z,33.55
2022-09-05T13:31:24.863Z,33.64
2022-09-05T13:38:01.200Z,33.87
2022-09-05T13:38:13.583Z,33.96
2022-09-05T13:39:04.347Z,34.29
2022-09-05T13:41:35.422Z,34.42
2022-09-05T13:44:27.442Z,34.69
2022-09-05T13:47:28.754Z,35.05
2022-09-05T13:50:16.560Z,35.41
2022-09-05T13:52:52.555Z,35.78
2022-09-05T13:55:25.214Z,35.60
2022-09-05T13:57:58.535Z,35.12
2022-09-05T14:00:39.994Z,34.63
2022-09-05T14:03:31.753Z,34.65
2022-09-05T14:06:46.536Z,34.47
2022-09-05T14:09:37.070Z,34.38
2022-09-05T14:12:08.399Z,35.03
2022-09-05T14:15:11.623Z,35.87
2022-09-05T14:18:02.271Z,36.41
2022-09-05T14:21:14.746Z,36.12
2022-09-05T14:23:53.788Z,35.32
2022-09-05T14:26:23.609Z,34.72
2022-09-05T14:29:02.597Z,34.26
2022-09-05T14:37:35.955Z,33.81
2022-09-05T14:37:44.465Z,34.27
2022-09-05T14:38:05.821Z,34.97
2022-09-05T14:41:20.367Z,36.06
2022-09-05T14:44:15.634Z,36.79
2022-09-05T14:47:35.211Z,36.14
2022-09-05T14:50:17.627Z,35.31
2022-09-05T14:57:28.616Z,34.70
2022-09-05T15:02:46.197Z,33.97
2022-09-05T15:02:52.716Z,34.35
2022-09-05T15:05:03.092Z,33.58
2022-09-05T15:07:40.489Z,33.36
2022-09-05T15:12:17.198Z,33.16
2022-09-05T15:13:20.557Z,33.03
2022-09-05T15:16:02.197Z,33.18
2022-09-05T15:18:39.588Z,33.21
2022-09-05T15:21:34.584Z,34.14
2022-09-05T15:24:04.063Z,35.35
2022-09-05T15:26:36.221Z,36.34
2022-09-05T15:29:13.688Z,37.21
2022-09-05T15:31:41.998Z,36.63
2022-09-05T15:34:26.778Z,36.09
2022-09-05T15:36:56.291Z,36.26
2022-09-05T15:39:35.815Z,35.67
2022-09-05T15:42:21.415Z,34.62
2022-09-05T15:45:08.827Z,33.85
2022-09-05T15:47:37.053Z,33.12
2022-09-05T15:50:21.859Z,32.65
2022-09-05T15:52:55.045Z,32.20
2022-09-05T15:55:24.682Z,31.84
2022-09-05T15:57:56.927Z,31.58
2022-09-05T16:00:41.222Z,31.23
2022-09-05T16:05:08.916Z,30.97
2022-09-05T16:10:33.767Z,30.69
2022-09-05T16:10:49.692Z,30.46
2022-09-05T16:14:39.632Z,30.07
2022-09-05T16:23:20.766Z,29.77
2022-09-05T16:23:28.822Z,29.92
2022-09-05T16:23:40.446Z,29.50
2022-09-05T16:26:25.358Z,29.09
2022-09-05T16:29:01.924Z,28.66
2022-09-05T16:31:45.542Z,28.14
2022-09-05T16:34:42.812Z,27.62
2022-09-05T16:37:41.091Z,27.16
2022-09-05T16:40:19.306Z,26.93
2022-09-05T16:42:49.522Z,26.78
2022-09-05T16:45:19.161Z,26.59
2022-09-05T16:48:25.269Z,26.43
2022-09-05T16:51:15.304Z,26.36
2022-09-05T16:54:20.511Z,26.22
2022-09-05T16:56:59.933Z,26.20
2022-09-05T16:59:30.652Z,26.21
2022-09-05T17:02:07.443Z,26.20
2022-09-05T17:05:03.671Z,26.13
2022-09-05T17:07:43.698Z,26.13
2022-09-05T17:10:25.686Z,26.10
2022-09-05T17:12:55.982Z,26.06
2022-09-05T17:15:28.418Z,26.03
2022-09-05T17:18:19.487Z,25.96
2022-09-05T17:20:53.805Z,25.93
2022-09-05T17:29:19.599Z,25.78
2022-09-05T17:29:25.036Z,25.61
2022-09-05T17:32:51.529Z,25.34
2022-09-05T17:35:42.804Z,25.31
2022-09-05T17:38:36.839Z,25.28
2022-09-05T17:41:18.990Z,25.22
2022-09-05T17:43:58.197Z,25.18
2022-09-05T17:46:29.082Z,25.09
2022-09-05T17:49:18.896Z,24.95
2022-09-05T17:51:50.860Z,24.77
2022-09-05T17:54:22.491Z,24.67
2022-09-05T17:56:49.817Z,24.62
2022-09-05T17:59:19.363Z,24.60
2022-09-05T18:02:09.579Z,24.50
2022-09-05T18:04:50.109Z,24.42
2022-09-05T18:07:19.813Z,24.30
2022-09-05T18:10:03.565Z,24.20
2022-09-05T18:13:12.562Z,24.10
2022-09-05T18:15:32.737Z,24.02
2022-09-05T18:18:05.954Z,23.97
2022-09-05T18:20:45.647Z,23.91
2022-09-05T18:23:39.337Z,23.88
2022-09-05T18:26:24.378Z,23.78
2022-09-05T18:29:20.448Z,23.74
2022-09-05T18:31:51.972Z,23.70
2022-09-05T18:34:21.422Z,23.62
2022-09-05T18:36:58.050Z,23.55
2022-09-05T18:39:27.327Z,23.52
2022-09-05T18:42:07.075Z,23.45
2022-09-05T18:45:02.034Z,23.37
2022-09-05T18:47:53.269Z,23.33
2022-09-05T18:50:32.549Z,23.34
2022-09-05T18:53:08.700Z,23.31
2022-09-05T18:56:12.658Z,23.27
2022-09-05T18:58:34.332Z,23.21
2022-09-05T19:01:43.712Z,23.15
2022-09-05T19:04:39.210Z,23.09
2022-09-05T19:07:12.224Z,23.02
2022-09-05T19:09:57.361Z,22.92
2022-09-05T19:12:32.154Z,22.79
2022-09-05T19:15:07.010Z,22.72
2022-09-05T19:17:47.085Z,22.66
2022-09-05T19:20:31.704Z,22.65
2022-09-05T19:23:10.443Z,22.65
2022-09-05T19:25:46.527Z,22.66
2022-09-05T19:36:45.284Z,22.66
2022-09-05T19:36:45.402Z,22.67
2022-09-05T19:37:04.341Z,22.66
2022-09-05T19:37:27.434Z,22.68
2022-09-05T19:46:40.243Z,22.62
2022-09-05T19:47:37.067Z,22.64
2022-09-05T19:47:46.419Z,22.64
2022-09-05T19:48:26.314Z,22.62
2022-09-05T19:51:16.228Z,22.58
2022-09-05T19:53:53.949Z,22.60
2022-09-05T19:56:33.517Z,22.60
2022-09-05T19:59:00.204Z,22.57
2022-09-05T20:01:27.412Z,22.59
2022-09-05T20:03:54.478Z,22.53
2022-09-05T20:06:29.842Z,22.58
2022-09-05T20:09:08.923Z,22.55
2022-09-05T20:11:45.286Z,22.56
2022-09-05T20:14:22.168Z,22.54
2022-09-05T20:16:50.425Z,22.43
2022-09-05T20:19:37.547Z,22.46
2022-09-05T20:22:47.828Z,22.50
2022-09-05T20:24:59.139Z,22.52
2022-09-05T20:27:29.490Z,22.52
2022-09-05T20:30:03.856Z,22.50
2022-09-05T20:32:39.523Z,22.52
2022-09-05T20:37:50.296Z,22.52
2022-09-05T20:43:23.808Z,22.49
2022-09-05T20:43:24.923Z,22.49
2022-09-05T20:43:56.530Z,22.47
2022-09-05T20:50:26.029Z,22.41
2022-09-05T20:54:07.459Z,22.45
2022-09-05T20:54:22.575Z,22.46
2022-09-05T20:55:39.977Z,22.47
2022-09-05T20:58:31.910Z,22.45
2022-09-05T21:01:22.974Z,22.43
2022-09-05T21:04:08.115Z,22.44
2022-09-05T21:06:36.648Z,22.48
2022-09-05T21:09:12.439Z,22.46
2022-09-05T21:11:39.881Z,22.47
2022-09-05T21:14:07.619Z,22.45
2022-09-05T21:16:42.767Z,22.44
2022-09-05T21:19:23.496Z,22.41
2022-09-05T21:22:02.068Z,22.41
2022-09-05T21:24:29.069Z,22.42
2022-09-05T21:27:22.699Z,22.39
2022-09-05T21:29:58.720Z,22.40
2022-09-05T21:32:33.418Z,22.46
2022-09-05T21:35:31.108Z,22.97
2022-09-05T21:37:53.650Z,23.32
2022-09-05T21:40:21.283Z,23.64
2022-09-05T21:44:25.392Z,23.74
2022-09-05T21:47:39.458Z,23.77
2022-09-05T21:48:24.322Z,23.70
2022-09-05T21:50:54.355Z,23.63
2022-09-05T21:59:11.611Z,23.49
2022-09-05T21:59:18.404Z,23.43
2022-09-05T21:59:41.696Z,23.34
2022-09-05T22:02:16.553Z,23.18
2022-09-05T22:04:43.475Z,23.01
2022-09-05T22:07:32.413Z,22.84
2022-09-05T22:10:00.931Z,22.67
2022-09-05T22:12:31.430Z,22.50
2022-09-05T22:15:04.557Z,22.37
2022-09-05T22:17:46.669Z,22.22
2022-09-05T22:20:16.173Z,22.09
2022-09-05T22:22:43.538Z,21.97
2022-09-05T22:25:30.449Z,21.81
2022-09-05T22:28:16.559Z,21.65
2022-09-05T22:30:43.726Z,21.58
2022-09-05T22:33:12.069Z,21.44
2022-09-05T22:35:40.176Z,21.36
2022-09-05T22:38:12.612Z,21.25
2022-09-05T22:40:41.533Z,21.11
2022-09-05T22:43:09.989Z,21.01
2022-09-05T22:45:38.342Z,20.89
2022-09-05T22:48:13.208Z,20.95
2022-09-05T22:50:41.672Z,20.91
2022-09-05T22:53:09.787Z,20.81
2022-09-05T22:55:38.930Z,20.67
2022-09-05T22:58:07.793Z,20.58
2022-09-05T23:00:35.079Z,20.52
2022-09-05T23:03:04.220Z,20.46
2022-09-05T23:05:32.261Z,20.46
2022-09-05T23:08:04.016Z,20.42
2022-09-05T23:10:31.478Z,20.27
2022-09-05T23:12:58.948Z,20.07
2022-09-05T23:15:26.550Z,19.87
2022-09-05T23:17:58.921Z,19.77
2022-09-05T23:20:27.888Z,19.73
2022-09-05T23:22:54.674Z,19.75
2022-09-05T23:25:22.362Z,19.77
2022-09-05T23:27:49.624Z,19.79
2022-09-05T23:30:16.982Z,19.74
2022-09-05T23:32:45.353Z,19.74
2022-09-05T23:35:12.013Z,19.71
2022-09-05T23:37:41.374Z,19.68
2022-09-05T23:40:09.183Z,19.67
2022-09-05T23:42:35.771Z,19.67
2022-09-05T23:45:02.328Z,19.65
2022-09-05T23:47:29.739Z,19.69
2022-09-05T23:49:56.486Z,19.72
2022-09-05T23:52:23.089Z,19.71
2022-09-05T23:54:49.758Z,19.75
2022-09-05T23:57:21.910Z,19.78
2022-09-05T23:59:48.506Z,19.78
